Aviation Digital Data Service (ADDS)

Output produced by METARs form (0514 UTC 18 February 2018)
found at http://aviationweather.gov/adds/metars/
 
METAR text: GVAC 180500Z 05013KT 9999 BKN014 19/14 Q1014 NOSIG
Conditions at: GVAC (SAL ISL/AMILCAR , CV) observed 0500 UTC 18 February 2018
Temperature: 19.0°C (66°F)
Dewpoint: 14.0°C (57°F) [RH = 73%]
Pressure (altimeter): 29.94 inches Hg (1014.0 mb)
Winds: from the NE (50 degrees) at 15 MPH (13 knots; 6.8 m/s)
Visibility: 6 or more miles (10+ km)
Ceiling: 1400 feet AGL
Clouds: broken clouds at 1400 feet AGL
Weather: no significant weather observed at this time

METAR text: GVAC 180400Z 04013KT 9999 SCT014 19/14 Q1015 NOSIG
Conditions at: GVAC (SAL ISL/AMILCAR , CV) observed 0400 UTC 18 February 2018
Temperature: 19.0°C (66°F)
Dewpoint: 14.0°C (57°F) [RH = 73%]
Pressure (altimeter): 29.97 inches Hg (1015.0 mb)
Winds: from the NE (40 degrees) at 15 MPH (13 knots; 6.8 m/s)
Visibility: 6 or more miles (10+ km)
Ceiling: at least 12,000 feet AGL
Clouds: scattered clouds at 1400 feet AGL
Weather: no significant weather observed at this time

METAR text: GVAC 180300Z 05011KT 9999 SCT014 19/15 Q1015 NOSIG
Conditions at: GVAC (SAL ISL/AMILCAR , CV) observed 0300 UTC 18 February 2018
Temperature: 19.0°C (66°F)
Dewpoint: 15.0°C (59°F) [RH = 78%]
Pressure (altimeter): 29.97 inches Hg (1015.0 mb)
Winds: from the NE (50 degrees) at 13 MPH (11 knots; 5.7 m/s)
Visibility: 6 or more miles (10+ km)
Ceiling: at least 12,000 feet AGL
Clouds: scattered clouds at 1400 feet AGL
Weather: no significant weather observed at this time

METAR text: GVAC 180200Z 05012KT 9999 SCT014 19/15 Q1016 NOSIG
Conditions at: GVAC (SAL ISL/AMILCAR , CV) observed 0200 UTC 18 February 2018
Temperature: 19.0°C (66°F)
Dewpoint: 15.0°C (59°F) [RH = 78%]
Pressure (altimeter): 30.00 inches Hg (1016.0 mb)
Winds: from the NE (50 degrees) at 14 MPH (12 knots; 6.2 m/s)
Visibility: 6 or more miles (10+ km)
Ceiling: at least 12,000 feet AGL
Clouds: scattered clouds at 1400 feet AGL
Weather: no significant weather observed at this time

METAR text: GVAC 180100Z 05013KT 9999 SCT015 20/15 Q1016 NOSIG
Conditions at: GVAC (SAL ISL/AMILCAR , CV) observed 0100 UTC 18 February 2018
Temperature: 20.0°C (68°F)
Dewpoint: 15.0°C (59°F) [RH = 73%]
Pressure (altimeter): 30.00 inches Hg (1016.0 mb)
Winds: from the NE (50 degrees) at 15 MPH (13 knots; 6.8 m/s)
Visibility: 6 or more miles (10+ km)
Ceiling: at least 12,000 feet AGL
Clouds: scattered clouds at 1500 feet AGL
Weather: no significant weather observed at this time

METAR text: GVAC 180000Z 04013KT 9999 BKN015 20/15 Q1017 NOSIG
Conditions at: GVAC (SAL ISL/AMILCAR , CV) observed 0000 UTC 18 February 2018
Temperature: 20.0°C (68°F)
Dewpoint: 15.0°C (59°F) [RH = 73%]
Pressure (altimeter): 30.03 inches Hg (1017.0 mb)
Winds: from the NE (40 degrees) at 15 MPH (13 knots; 6.8 m/s)
Visibility: 6 or more miles (10+ km)
Ceiling: 1500 feet AGL
Clouds: broken clouds at 1500 feet AGL
Weather: no significant weather observed at this time

METAR text: GVAC 172300Z 05014KT 9999 SCT013 BKN100 20/15 Q1017 NOSIG
Conditions at: GVAC (SAL ISL/AMILCAR , CV) observed 2300 UTC 17 February 2018
Temperature: 20.0°C (68°F)
Dewpoint: 15.0°C (59°F) [RH = 73%]
Pressure (altimeter): 30.03 inches Hg (1017.0 mb)
Winds: from the NE (50 degrees) at 16 MPH (14 knots; 7.3 m/s)
Visibility: 6 or more miles (10+ km)
Ceiling: 10000 feet AGL
Clouds: scattered clouds at 1300 feet AGL
broken clouds at 10000 feet AGL
Weather: no significant weather observed at this time

METAR text: GVAC 172200Z 04014KT 9999 SCT013 BKN100 20/15 Q1017 NOSIG
Conditions at: GVAC (SAL ISL/AMILCAR , CV) observed 2200 UTC 17 February 2018
Temperature: 20.0°C (68°F)
Dewpoint: 15.0°C (59°F) [RH = 73%]
Pressure (altimeter): 30.03 inches Hg (1017.0 mb)
Winds: from the NE (40 degrees) at 16 MPH (14 knots; 7.3 m/s)
Visibility: 6 or more miles (10+ km)
Ceiling: 10000 feet AGL
Clouds: scattered clouds at 1300 feet AGL
broken clouds at 10000 feet AGL
Weather: no significant weather observed at this time

METAR text: GVAC 172100Z 04013KT 9999 SCT013 BKN100 20/15 Q1016 NOSIG
Conditions at: GVAC (SAL ISL/AMILCAR , CV) observed 2100 UTC 17 February 2018
Temperature: 20.0°C (68°F)
Dewpoint: 15.0°C (59°F) [RH = 73%]
Pressure (altimeter): 30.00 inches Hg (1016.0 mb)
Winds: from the NE (40 degrees) at 15 MPH (13 knots; 6.8 m/s)
Visibility: 6 or more miles (10+ km)
Ceiling: 10000 feet AGL
Clouds: scattered clouds at 1300 feet AGL
broken clouds at 10000 feet AGL
Weather: no significant weather observed at this time

METAR text: GVAC 172000Z 04014KT 9999 SCT013 BKN100 20/14 Q1016 NOSIG
Conditions at: GVAC (SAL ISL/AMILCAR , CV) observed 2000 UTC 17 February 2018
Temperature: 20.0°C (68°F)
Dewpoint: 14.0°C (57°F) [RH = 68%]
Pressure (altimeter): 30.00 inches Hg (1016.0 mb)
Winds: from the NE (40 degrees) at 16 MPH (14 knots; 7.3 m/s)
Visibility: 6 or more miles (10+ km)
Ceiling: 10000 feet AGL
Clouds: scattered clouds at 1300 feet AGL
broken clouds at 10000 feet AGL
Weather: no significant weather observed at this time

METAR text: GVAC 171900Z 04014KT 9999 BKN013 BKN100 20/14 Q1016 NOSIG
Conditions at: GVAC (SAL ISL/AMILCAR , CV) observed 1900 UTC 17 February 2018
Temperature: 20.0°C (68°F)
Dewpoint: 14.0°C (57°F) [RH = 68%]
Pressure (altimeter): 30.00 inches Hg (1016.0 mb)
Winds: from the NE (40 degrees) at 16 MPH (14 knots; 7.3 m/s)
Visibility: 6 or more miles (10+ km)
Ceiling: 1300 feet AGL
Clouds: broken clouds at 1300 feet AGL
broken clouds at 10000 feet AGL
Weather: no significant weather observed at this time

METAR text: GVAC 171800Z 05016KT 9999 BKN013 BKN100 21/14 Q1015 NOSIG
Conditions at: GVAC (SAL ISL/AMILCAR , CV) observed 1800 UTC 17 February 2018
Temperature: 21.0°C (70°F)
Dewpoint: 14.0°C (57°F) [RH = 64%]
Pressure (altimeter): 29.97 inches Hg (1015.0 mb)
Winds: from the NE (50 degrees) at 18 MPH (16 knots; 8.3 m/s)
Visibility: 6 or more miles (10+ km)
Ceiling: 1300 feet AGL
Clouds: broken clouds at 1300 feet AGL
broken clouds at 10000 feet AGL
Weather: no significant weather observed at this time